Time;durP1;ratioP1;P1;durP2;ratioP2;P2;SDS_P1;SDS_P2;PMS_P1;PMS_P2;Temp;Humidity;BMP_temperature;BMP_pressure;BME280_temperature;BME280_humidity;BME280_pressure;Samples;Min_cycle;Max_cycle;Signal;HPM_P1;HPM_P2
2021/11/02 00:02:06;;;;;;;1.65;0.30;;;27.90;85.20;;;;;;5091584;28;20027;-73
2021/11/02 00:04:33;;;;;;;2.28;0.22;;;27.90;83.70;;;;;;5096366;28;20035;-76
2021/11/02 00:07:01;;;;;;;5.22;0.35;;;27.20;83.90;;;;;;5088016;28;20042;-75
2021/11/02 00:09:32;;;;;;;1.08;0.40;;;26.70;84.10;;;;;;5085056;28;20323;-75
2021/11/02 00:12:01;;;;;;;1.05;0.30;;;26.20;86.30;;;;;;5080823;28;20199;-76
2021/11/02 00:14:29;;;;;;;2.60;0.45;;;25.80;88.10;;;;;;5082748;28;20035;-77
2021/11/02 00:17:02;;;;;;;3.20;0.20;;;25.20;87.70;;;;;;5081899;28;20367;-73
2021/11/02 00:19:30;;;;;;;0.95;0.30;;;25.10;88.10;;;;;;5064751;28;20570;-75
2021/11/02 00:22:05;;;;;;;0.90;0.32;;;24.90;88.30;;;;;;5081966;28;20032;-76
2021/11/02 00:27:04;;;;;;;3.53;0.40;;;24.80;88.50;;;;;;5080945;28;20020;-77
2021/11/02 00:29:32;;;;;;;2.58;1.50;;;24.70;88.80;;;;;;5078852;28;20454;-73
2021/11/02 00:32:00;;;;;;;0.90;0.20;;;24.60;87.80;;;;;;5051854;28;20045;-76
2021/11/02 00:34:27;;;;;;;1.70;0.50;;;24.60;86.70;;;;;;5038889;28;20498;-75
2021/11/02 00:36:55;;;;;;;2.17;0.20;;;24.90;86.40;;;;;;5040800;28;20064;-76
2021/11/02 00:39:22;;;;;;;1.90;0.20;;;24.90;87.20;;;;;;5042884;28;20507;-76
2021/11/02 00:41:50;;;;;;;0.65;0.20;;;24.70;86.60;;;;;;5039700;28;20025;-75
2021/11/02 00:44:20;;;;;;;1.25;0.30;;;24.70;86.80;;;;;;5042514;28;20056;-74
2021/11/02 00:46:50;;;;;;;1.70;0.30;;;24.80;87.60;;;;;;5036570;28;20025;-76
2021/11/02 00:49:21;;;;;;;3.03;0.80;;;24.90;87.70;;;;;;5041763;28;20042;-76
2021/11/02 00:51:49;;;;;;;3.67;0.13;;;25.00;86.70;;;;;;5040913;28;20099;-78
2021/11/02 00:54:17;;;;;;;0.73;0.22;;;25.30;84.70;;;;;;5042849;28;20028;-77
2021/11/02 00:56:45;;;;;;;1.85;0.47;;;25.60;84.20;;;;;;5036886;28;20389;-73
2021/11/02 00:59:13;;;;;;;1.13;0.20;;;25.50;84.30;;;;;;5038019;28;20033;-75
2021/11/02 01:01:41;;;;;;;2.78;0.50;;;25.60;84.70;;;;;;5039580;28;20139;-74
2021/11/02 01:04:09;;;;;;;1.27;0.20;;;25.80;83.60;;;;;;5042637;28;20044;-78
2021/11/02 01:06:38;;;;;;;2.13;0.40;;;25.90;82.40;;;;;;5038793;28;20412;-78
2021/11/02 01:09:07;;;;;;;1.73;0.10;;;26.20;82.30;;;;;;5039519;28;20120;-76
2021/11/02 01:11:35;;;;;;;5.55;1.38;;;26.30;81.90;;;;;;5037408;28;20044;-75
2021/11/02 01:14:04;;;;;;;1.42;0.20;;;26.30;82.10;;;;;;5039031;28;20025;-72
2021/11/02 01:16:32;;;;;;;3.97;0.45;;;26.10;81.20;;;;;;5034982;28;20064;-72
2021/11/02 01:18:59;;;;;;;3.20;0.10;;;26.00;80.00;;;;;;5040982;28;20029;-78
2021/11/02 01:21:27;;;;;;;2.72;0.65;;;25.90;79.60;;;;;;5040835;28;20096;-79
2021/11/02 01:23:54;;;;;;;2.72;0.10;;;25.60;80.80;;;;;;5042015;28;20067;-77
2021/11/02 01:26:21;;;;;;;3.65;0.20;;;25.50;81.40;;;;;;5042548;28;20017;-75
2021/11/02 01:28:49;;;;;;;3.40;0.20;;;25.20;81.40;;;;;;5037843;28;20385;-75
2021/11/02 01:31:16;;;;;;;4.40;0.50;;;25.10;82.00;;;;;;5039799;28;20383;-77
2021/11/02 01:33:44;;;;;;;0.22;0.10;;;25.00;82.20;;;;;;5081810;28;20036;-75
2021/11/02 01:36:11;;;;;;;1.23;0.52;;;25.10;82.20;;;;;;5085246;28;20047;-75
2021/11/02 01:38:40;;;;;;;3.13;0.52;;;25.30;81.50;;;;;;5083436;28;20012;-76
2021/11/02 01:41:07;;;;;;;1.92;0.22;;;25.40;81.10;;;;;;5080723;28;20482;-75
2021/11/02 01:43:35;;;;;;;3.40;1.10;;;25.20;81.10;;;;;;5082454;28;20036;-76
2021/11/02 01:46:03;;;;;;;1.27;0.25;;;25.10;81.20;;;;;;5080416;28;20023;-75
2021/11/02 01:48:31;;;;;;;0.75;0.25;;;25.10;81.10;;;;;;5085182;28;20157;-76
2021/11/02 01:51:01;;;;;;;2.28;0.35;;;25.20;80.50;;;;;;5064000;28;20024;-76
2021/11/02 01:53:28;;;;;;;2.70;0.55;;;25.20;80.40;;;;;;5078386;28;20047;-75
2021/11/02 01:55:55;;;;;;;1.10;0.30;;;25.20;79.90;;;;;;5081607;28;20055;-75
2021/11/02 01:58:23;;;;;;;2.55;0.30;;;25.20;80.10;;;;;;5083192;28;20028;-75
2021/11/02 02:00:57;;;;;;;1.10;0.10;;;25.20;80.80;;;;;;5080380;28;20020;-74
2021/11/02 02:03:51;;;;;;;3.30;0.20;;;24.90;80.90;;;;;;5085525;28;20036;-75
2021/11/02 02:06:35;;;;;;;2.45;0.20;;;24.90;81.20;;;;;;5080708;28;20104;-75
2021/11/02 02:09:12;;;;;;;1.05;0.40;;;25.10;80.70;;;;;;5081712;28;20374;-76
2021/11/02 02:12:18;;;;;;;4.68;0.30;;;25.30;80.30;;;;;;5082060;28;20111;-76
2021/11/02 02:14:58;;;;;;;4.38;0.30;;;25.40;80.50;;;;;;5047861;28;20032;-76
2021/11/02 02:17:45;;;;;;;1.55;0.20;;;25.50;80.00;;;;;;5078654;28;20043;-75
2021/11/02 02:20:42;;;;;;;4.68;0.50;;;25.70;79.60;;;;;;5081317;28;20105;-76
2021/11/02 02:23:50;;;;;;;2.88;0.20;;;25.80;79.90;;;;;;5083060;28;20040;-74
2021/11/02 02:26:37;;;;;;;5.55;0.28;;;25.80;79.00;;;;;;5002401;28;20022;-76
2021/11/02 02:29:08;;;;;;;2.45;0.30;;;25.80;79.10;;;;;;5079473;28;20039;-76
2021/11/02 02:31:41;;;;;;;2.42;0.30;;;25.60;79.10;;;;;;5078128;28;20021;-75
2021/11/02 02:34:12;;;;;;;0.90;0.25;;;25.50;79.90;;;;;;5054094;28;20037;-76
2021/11/02 02:36:43;;;;;;;3.42;0.25;;;25.20;79.70;;;;;;5080416;28;20158;-74
2021/11/02 02:39:13;;;;;;;1.35;0.52;;;24.90;80.40;;;;;;5080605;28;20073;-73
2021/11/02 02:41:42;;;;;;;3.95;0.40;;;24.90;80.90;;;;;;5064425;28;20024;-74
2021/11/02 02:44:11;;;;;;;2.03;0.30;;;25.10;80.80;;;;;;5081012;28;20058;-75
2021/11/02 02:46:42;;;;;;;1.50;0.30;;;25.20;79.00;;;;;;5077766;28;20407;-73
2021/11/02 02:49:13;;;;;;;1.65;0.10;;;25.30;79.40;;;;;;5080659;28;20028;-75
2021/11/02 02:51:44;;;;;;;0.73;0.40;;;25.40;79.50;;;;;;5081555;28;20047;-75
2021/11/02 02:54:15;;;;;;;1.33;0.25;;;26.00;79.70;;;;;;5080131;28;20059;-74
2021/11/02 02:56:45;;;;;;;1.95;0.20;;;26.20;79.30;;;;;;5063015;28;20090;-76
2021/11/02 02:59:15;;;;;;;1.75;0.20;;;25.80;79.40;;;;;;5077782;28;20089;-74
2021/11/02 03:01:44;;;;;;;2.53;0.20;;;25.50;80.20;;;;;;5077057;28;20029;-75
2021/11/02 03:04:15;;;;;;;4.60;0.30;;;25.30;80.80;;;;;;5078437;28;20031;-76
2021/11/02 03:06:51;;;;;;;1.10;0.30;;;25.30;80.40;;;;;;5076673;28;20024;-73
2021/11/02 03:09:20;;;;;;;2.10;0.30;;;25.20;80.40;;;;;;5080390;28;20446;-73
2021/11/02 03:11:48;;;;;;;3.15;0.28;;;25.20;80.40;;;;;;5080940;28;20024;-74
2021/11/02 03:14:28;;;;;;;0.35;0.10;;;25.30;79.70;;;;;;5078962;28;20016;-76
2021/11/02 03:17:08;;;;;;;1.05;0.25;;;25.30;79.50;;;;;;5080473;28;20021;-75
2021/11/02 03:45:01;;;;;;;0.60;0.30;;;25.80;76.60;;;;;;5083494;28;20534;-75
2021/11/02 03:55:45;;;;;;;0.50;0.20;;;25.80;76.90;;;;;;5080660;28;20030;-75
2021/11/02 03:58:19;;;;;;;2.97;0.20;;;26.30;76.80;;;;;;5092784;28;20032;-74
2021/11/02 04:01:15;;;;;;;0.55;0.20;;;26.50;75.90;;;;;;5089551;28;20028;-76
2021/11/02 04:29:13;;;;;;;5.10;0.38;;;26.00;77.10;;;;;;5083520;28;20032;-75
2021/11/02 04:34:55;;;;;;;1.77;0.20;;;25.60;78.40;;;;;;5081146;28;20043;-73
2021/11/02 05:06:49;;;;;;;1.00;0.55;;;25.50;78.80;;;;;;5082707;28;20012;-73
2021/11/02 05:48:06;;;;;;;2.22;0.75;;;26.00;78.70;;;;;;5080324;28;20035;-75
2021/11/02 05:56:30;;;;;;;1.83;0.45;;;25.50;79.40;;;;;;5001185;28;20155;-74
2021/11/02 05:59:28;;;;;;;2.88;0.30;;;25.00;80.70;;;;;;5008657;28;20025;-74
2021/11/02 06:30:04;;;;;;;2.78;0.30;;;24.70;81.50;;;;;;5093018;28;20039;-77
2021/11/02 06:32:36;;;;;;;0.63;0.10;;;24.80;82.00;;;;;;5087596;28;20499;-76
2021/11/02 08:46:31;;;;;;;2.40;0.20;;;20.30;99.90;;;;;;5089120;28;20030;-79
2021/11/02 08:49:02;;;;;;;1.75;0.10;;;20.40;99.90;;;;;;5092792;28;20036;-75
2021/11/02 08:51:29;;;;;;;3.92;0.55;;;20.30;99.90;;;;;;5092348;28;20476;-79
2021/11/02 08:53:57;;;;;;;1.63;0.40;;;20.20;99.90;;;;;;5075062;28;20419;-79
2021/11/02 08:56:24;;;;;;;3.90;1.25;;;20.20;99.90;;;;;;5081606;28;20051;-80
2021/11/02 08:58:55;;;;;;;2.53;0.20;;;20.20;99.90;;;;;;5093839;28;20378;-77
2021/11/02 09:01:24;;;;;;;1.42;0.30;;;20.10;99.90;;;;;;5086577;28;20034;-79
2021/11/02 09:04:02;;;;;;;2.47;0.40;;;20.10;99.90;;;;;;5095002;28;20024;-80
2021/11/02 09:06:30;;;;;;;2.60;0.20;;;20.10;99.90;;;;;;5091657;28;20039;-80
2021/11/02 09:09:01;;;;;;;9.23;0.47;;;20.10;99.90;;;;;;5093877;28;20024;-77
2021/11/02 09:11:30;;;;;;;6.43;0.90;;;20.10;99.90;;;;;;5092228;28;20466;-80
2021/11/02 09:13:58;;;;;;;3.60;0.55;;;20.10;99.90;;;;;;5094733;28;20152;-78
2021/11/02 09:16:27;;;;;;;2.75;0.50;;;20.10;99.90;;;;;;5090065;28;20036;-76
2021/11/02 09:18:57;;;;;;;1.75;0.40;;;20.10;99.90;;;;;;5087750;28;20027;-80
2021/11/02 09:21:24;;;;;;;6.47;0.70;;;20.10;99.90;;;;;;5091116;28;20027;-77
2021/11/02 09:23:53;;;;;;;4.47;0.50;;;20.00;99.90;;;;;;5093884;28;20074;-81
2021/11/02 09:26:24;;;;;;;2.88;0.28;;;20.00;99.90;;;;;;5075165;28;20489;-83
2021/11/02 09:28:53;;;;;;;3.83;0.60;;;20.00;99.90;;;;;;5094734;28;20523;-77
2021/11/02 09:31:27;;;;;;;1.17;0.30;;;20.00;99.90;;;;;;5081067;28;20028;-81
2021/11/02 09:33:58;;;;;;;4.15;1.15;;;19.90;99.90;;;;;;5078299;28;20679;-79
2021/11/02 09:36:43;;;;;;;2.00;1.00;;;19.90;99.90;;;;;;5086082;28;20028;-75
2021/11/02 09:39:13;;;;;;;4.72;0.30;;;19.80;99.90;;;;;;5078507;28;20423;-80
2021/11/02 09:42:04;;;;;;;2.83;0.30;;;19.80;99.90;;;;;;5087380;28;20561;-77
2021/11/02 09:45:03;;;;;;;2.03;0.50;;;19.80;99.90;;;;;;5079557;28;20036;-79
2021/11/02 09:47:52;;;;;;;1.30;0.50;;;19.80;99.90;;;;;;5088707;28;20062;-77
2021/11/02 09:50:45;;;;;;;2.78;0.52;;;19.70;99.90;;;;;;5088623;28;20024;-83
2021/11/02 09:53:52;;;;;;;4.85;0.47;;;19.70;99.90;;;;;;5081373;28;20043;-80
2021/11/02 09:56:41;;;;;;;1.90;0.28;;;19.60;99.90;;;;;;5069832;28;20115;-83
2021/11/02 09:59:45;;;;;;;2.58;0.82;;;19.60;99.90;;;;;;5084582;28;20024;-81
2021/11/02 10:02:48;;;;;;;0.90;0.47;;;19.60;99.90;;;;;;5078813;28;20025;-78
2021/11/02 10:05:29;;;;;;;1.83;0.90;;;19.50;99.90;;;;;;5079831;28;20128;-79
2021/11/02 10:08:41;;;;;;;1.05;0.30;;;19.50;99.90;;;;;;5074450;28;20023;-82
2021/11/02 10:11:23;;;;;;;2.70;0.30;;;19.50;99.90;;;;;;5082957;28;20066;-81
2021/11/02 10:14:24;;;;;;;3.10;0.65;;;19.40;99.90;;;;;;5077120;28;20028;-76
2021/11/02 10:17:21;;;;;;;2.55;0.82;;;19.40;99.90;;;;;;5079512;28;20020;-78
2021/11/02 10:20:03;;;;;;;5.57;1.27;;;19.30;99.90;;;;;;5075462;28;20024;-78
2021/11/02 10:22:42;;;;;;;0.95;0.35;;;19.20;99.90;;;;;;5080387;28;20119;-80
2021/11/02 10:25:47;;;;;;;1.45;0.35;;;19.10;99.90;;;;;;5078216;28;20127;-80
2021/11/02 10:28:38;;;;;;;2.65;0.43;;;19.00;99.90;;;;;;5077663;28;20147;-79
2021/11/02 10:31:08;;;;;;;6.35;1.30;;;18.90;99.90;;;;;;5085755;28;20459;-79
2021/11/02 10:33:59;;;;;;;2.10;0.30;;;18.90;99.90;;;;;;5066830;28;20068;-76
2021/11/02 10:36:36;;;;;;;2.08;0.25;;;18.90;99.90;;;;;;5058251;28;20028;-75
2021/11/02 10:39:17;;;;;;;3.80;0.47;;;18.80;99.90;;;;;;5083440;28;20016;-76
2021/11/02 10:41:59;;;;;;;2.13;0.73;;;18.70;99.90;;;;;;5078233;28;20150;-77
2021/11/02 10:44:41;;;;;;;5.53;0.32;;;18.70;99.90;;;;;;5075805;28;20352;-75
2021/11/02 10:47:23;;;;;;;2.00;0.63;;;18.60;99.90;;;;;;5079423;28;20031;-79
2021/11/02 10:50:12;;;;;;;3.85;0.50;;;18.60;99.90;;;;;;5077634;28;20020;-75
2021/11/02 10:52:41;;;;;;;1.73;0.50;;;18.50;99.90;;;;;;5076195;28;20024;-76
2021/11/02 10:55:49;;;;;;;1.33;0.55;;;18.50;99.90;;;;;;5083552;28;20047;-75
2021/11/02 10:58:52;;;;;;;0.98;0.40;;;18.50;99.90;;;;;;5080788;28;20150;-75
2021/11/02 11:01:22;;;;;;;0.82;0.32;;;18.50;99.90;;;;;;5084335;28;20024;-78
2021/11/02 11:03:51;;;;;;;3.60;0.70;;;18.40;99.90;;;;;;5088811;28;20070;-76
2021/11/02 11:06:21;;;;;;;3.63;0.68;;;18.40;99.90;;;;;;5086749;28;20535;-78
2021/11/02 11:08:49;;;;;;;2.45;0.45;;;18.40;99.90;;;;;;5091087;28;20028;-75
2021/11/02 11:11:18;;;;;;;6.25;0.93;;;18.40;99.90;;;;;;5090013;28;20038;-77
2021/11/02 11:13:48;;;;;;;2.75;0.20;;;18.30;99.90;;;;;;5074438;28;20035;-77
2021/11/02 11:16:24;;;;;;;2.22;0.55;;;18.20;99.90;;;;;;5090194;28;20020;-76
2021/11/02 11:19:06;;;;;;;2.15;0.40;;;18.20;99.90;;;;;;5088794;28;20027;-78
2021/11/02 11:21:39;;;;;;;1.10;0.40;;;18.10;99.90;;;;;;5087877;28;20032;-76
2021/11/02 11:24:23;;;;;;;2.00;0.30;;;18.10;99.90;;;;;;5081228;28;20044;-77
2021/11/02 11:26:53;;;;;;;0.47;0.20;;;18.00;99.90;;;;;;5090591;28;20364;-81
2021/11/02 11:29:26;;;;;;;6.50;0.68;;;17.90;99.90;;;;;;5088937;28;20077;-77
2021/11/02 11:31:59;;;;;;;2.65;0.57;;;17.80;99.90;;;;;;5084691;28;20043;-80
2021/11/02 11:34:36;;;;;;;2.72;1.25;;;17.80;99.90;;;;;;5068023;28;20032;-77
2021/11/02 11:37:06;;;;;;;3.60;0.30;;;17.80;99.90;;;;;;5088474;28;20028;-76
2021/11/02 11:39:34;;;;;;;4.45;0.70;;;17.70;99.90;;;;;;5079362;28;20548;-77
2021/11/02 11:42:01;;;;;;;6.50;1.02;;;17.70;99.90;;;;;;5081351;28;20052;-76
2021/11/02 11:44:31;;;;;;;4.35;0.52;;;17.60;99.90;;;;;;5077607;28;20040;-77
2021/11/02 11:47:15;;;;;;;3.70;0.88;;;17.60;99.90;;;;;;5078060;28;20095;-77
2021/11/02 11:49:45;;;;;;;1.15;0.45;;;17.50;99.90;;;;;;5088506;28;20024;-77
2021/11/02 11:52:13;;;;;;;3.80;0.73;;;17.50;99.90;;;;;;5092925;28;20112;-77
2021/11/02 11:54:55;;;;;;;3.65;0.73;;;17.50;99.90;;;;;;5095885;28;20032;-76
2021/11/02 11:57:35;;;;;;;1.73;0.40;;;17.40;99.90;;;;;;5080192;28;20085;-76
2021/11/02 12:00:06;;;;;;;3.13;0.40;;;17.40;99.90;;;;;;5083133;28;20119;-74
2021/11/02 12:02:42;;;;;;;5.65;0.60;;;17.40;99.90;;;;;;5081485;28;20028;-75
2021/11/02 12:05:19;;;;;;;2.22;0.50;;;17.30;99.90;;;;;;5086945;28;20032;-74
2021/11/02 12:08:18;;;;;;;1.35;1.10;;;17.30;99.90;;;;;;5083562;28;20129;-77
2021/11/02 12:10:46;;;;;;;1.77;0.60;;;17.30;99.90;;;;;;5083608;28;20402;-75
2021/11/02 12:13:14;;;;;;;0.95;0.30;;;17.20;99.90;;;;;;5083303;28;20036;-74
2021/11/02 12:16:21;;;;;;;2.97;0.63;;;17.20;99.90;;;;;;5072224;28;20102;-75
2021/11/02 12:18:56;;;;;;;4.93;0.60;;;17.10;99.90;;;;;;5081495;28;20142;-75
2021/11/02 12:21:28;;;;;;;1.20;0.35;;;17.10;99.90;;;;;;5080683;28;20040;-75
2021/11/02 12:24:02;;;;;;;2.35;0.45;;;17.00;99.90;;;;;;5081743;28;20044;-75
2021/11/02 12:26:47;;;;;;;1.67;0.47;;;17.00;99.90;;;;;;5082556;28;20475;-76
2021/11/02 12:29:26;;;;;;;4.40;0.80;;;16.90;99.90;;;;;;5081146;28;20195;-73
2021/11/02 12:32:03;;;;;;;3.28;0.70;;;16.80;99.90;;;;;;5061727;28;20032;-74
2021/11/02 12:34:46;;;;;;;3.25;0.98;;;16.80;99.90;;;;;;5079257;28;20028;-75
2021/11/02 12:37:15;;;;;;;1.70;0.45;;;16.70;99.90;;;;;;5082454;28;20391;-74
2021/11/02 12:39:43;;;;;;;2.10;0.90;;;16.70;99.90;;;;;;5085224;28;20063;-75
2021/11/02 12:42:11;;;;;;;4.22;0.70;;;16.70;99.90;;;;;;5088961;28;20012;-76
2021/11/02 12:44:40;;;;;;;4.70;1.20;;;16.70;99.90;;;;;;5076035;28;20371;-74
2021/11/02 12:47:13;;;;;;;3.80;1.23;;;16.60;99.90;;;;;;5086568;28;20027;-75
2021/11/02 12:49:49;;;;;;;4.30;0.75;;;16.60;99.90;;;;;;5092571;28;20074;-77
2021/11/02 12:52:19;;;;;;;4.13;0.60;;;16.50;99.90;;;;;;5090497;28;20028;-76
2021/11/02 12:55:11;;;;;;;1.60;0.80;;;16.50;99.90;;;;;;5094860;28;20517;-76
2021/11/02 12:57:47;;;;;;;5.13;0.50;;;16.50;99.90;;;;;;5076078;28;20359;-74
2021/11/02 13:00:18;;;;;;;6.95;1.10;;;16.50;99.90;;;;;;5082163;28;20100;-74
2021/11/02 13:02:58;;;;;;;8.82;1.08;;;16.40;99.90;;;;;;5073871;28;20081;-76
2021/11/02 13:05:28;;;;;;;6.20;2.33;;;16.40;99.90;;;;;;5082516;28;20111;-77
2021/11/02 13:08:09;;;;;;;3.38;1.05;;;16.40;99.90;;;;;;5085311;28;20051;-76
2021/11/02 13:10:41;;;;;;;11.48;1.15;;;16.30;99.90;;;;;;5074973;28;20081;-77
2021/11/02 13:13:16;;;;;;;4.97;0.63;;;16.30;99.90;;;;;;5079265;28;20103;-75
2021/11/02 13:15:55;;;;;;;4.80;1.17;;;16.30;99.90;;;;;;5074103;28;20032;-77
2021/11/02 13:18:32;;;;;;;6.32;0.90;;;16.30;99.90;;;;;;5076971;28;20031;-78
2021/11/02 13:21:25;;;;;;;7.85;0.88;;;16.30;99.90;;;;;;5074488;28;20108;-76
2021/11/02 13:24:17;;;;;;;7.35;1.25;;;16.20;99.90;;;;;;5088404;28;20046;-76
2021/11/02 13:26:49;;;;;;;11.80;1.30;;;16.20;99.90;;;;;;5091382;28;20020;-77
2021/11/02 13:29:22;;;;;;;8.30;0.80;;;16.10;99.90;;;;;;5079641;28;20031;-76
2021/11/02 13:31:54;;;;;;;8.55;1.58;;;16.10;99.90;;;;;;5078676;28;20044;-76
2021/11/02 13:34:42;;;;;;;4.47;0.90;;;16.10;99.90;;;;;;5092738;28;20020;-76
2021/11/02 13:37:14;;;;;;;4.85;1.00;;;16.10;99.90;;;;;;5091233;28;20202;-75
2021/11/02 13:39:53;;;;;;;6.38;0.80;;;16.20;99.90;;;;;;5086405;28;20024;-76
2021/11/02 13:42:40;;;;;;;4.90;0.73;;;16.10;99.90;;;;;;5090465;28;20032;-76
2021/11/02 13:45:10;;;;;;;6.03;1.20;;;16.10;99.90;;;;;;5073705;28;20041;-74
2021/11/02 13:47:38;;;;;;;9.10;2.05;;;16.10;99.90;;;;;;5092642;28;20024;-74
2021/11/02 13:50:06;;;;;;;5.97;1.17;;;16.00;99.90;;;;;;5085401;28;20098;-75
2021/11/02 13:52:35;;;;;;;2.38;1.15;;;16.00;99.90;;;;;;5079748;28;20028;-75
2021/11/02 13:55:05;;;;;;;6.10;0.88;;;16.00;99.90;;;;;;5073254;28;20047;-76
2021/11/02 13:57:32;;;;;;;2.15;1.23;;;16.00;99.90;;;;;;5075039;28;20024;-77
2021/11/02 14:00:00;;;;;;;6.00;1.08;;;15.90;99.90;;;;;;5073844;28;20020;-76
2021/11/02 14:02:29;;;;;;;8.45;0.90;;;15.90;99.90;;;;;;5073345;28;20031;-76
2021/11/02 14:04:57;;;;;;;1.90;0.50;;;15.90;99.90;;;;;;5073806;28;20020;-74
2021/11/02 14:07:31;;;;;;;2.08;0.60;;;15.90;99.90;;;;;;5083612;28;20482;-75
2021/11/02 14:10:01;;;;;;;8.30;0.90;;;15.90;99.90;;;;;;5088609;28;20078;-73
2021/11/02 14:12:31;;;;;;;2.17;0.80;;;15.90;99.90;;;;;;5091052;28;20020;-75
2021/11/02 14:15:15;;;;;;;5.72;1.40;;;15.80;99.90;;;;;;5092133;28;20134;-74
2021/11/02 14:18:09;;;;;;;1.25;0.40;;;15.80;99.90;;;;;;5080489;28;20025;-75
2021/11/02 14:20:54;;;;;;;4.25;1.25;;;15.80;99.90;;;;;;5074725;28;20108;-74
2021/11/02 14:23:38;;;;;;;5.03;0.70;;;15.70;99.90;;;;;;5082960;28;20063;-73
2021/11/02 14:26:37;;;;;;;1.77;0.65;;;15.70;99.90;;;;;;5080517;28;20049;-75
2021/11/02 14:29:10;;;;;;;5.35;1.77;;;15.60;99.90;;;;;;5081823;28;20158;-75
2021/11/02 14:31:37;;;;;;;3.55;0.98;;;15.60;99.90;;;;;;5084843;28;20022;-74
2021/11/02 14:34:08;;;;;;;2.28;0.60;;;15.60;99.90;;;;;;5078554;28;20501;-74
2021/11/02 14:36:41;;;;;;;3.75;0.70;;;15.60;99.90;;;;;;5082399;28;20028;-73
2021/11/02 14:39:11;;;;;;;4.22;0.85;;;15.50;99.90;;;;;;5081629;28;20566;-74
2021/11/02 14:41:47;;;;;;;3.67;0.73;;;15.50;99.90;;;;;;5084648;28;20386;-76
2021/11/02 14:44:27;;;;;;;4.32;0.52;;;15.50;99.90;;;;;;5092244;28;20024;-74
2021/11/02 14:46:59;;;;;;;2.53;0.60;;;15.40;99.90;;;;;;5090286;28;20081;-75
2021/11/02 14:49:30;;;;;;;5.00;0.95;;;15.40;99.90;;;;;;5081468;28;20633;-75
2021/11/02 14:52:08;;;;;;;1.17;0.63;;;15.40;99.90;;;;;;5076006;28;20479;-74
2021/11/02 14:54:47;;;;;;;5.07;0.68;;;15.40;99.90;;;;;;5072185;28;20028;-74
2021/11/02 14:57:20;;;;;;;4.68;1.15;;;15.40;99.90;;;;;;5072960;28;20170;-75
2021/11/02 15:00:02;;;;;;;5.30;1.00;;;15.40;99.90;;;;;;5072108;28;20484;-74
2021/11/02 15:02:40;;;;;;;2.75;0.73;;;15.40;99.90;;;;;;5088613;28;20051;-73
2021/11/02 15:05:19;;;;;;;6.13;0.60;;;15.40;99.90;;;;;;5092056;28;20068;-73
2021/11/02 15:07:50;;;;;;;1.92;0.95;;;15.40;99.90;;;;;;5072375;28;20027;-74
2021/11/02 15:10:20;;;;;;;9.48;0.90;;;15.30;99.90;;;;;;5072316;28;20032;-73
2021/11/02 15:12:51;;;;;;;3.38;0.68;;;15.20;99.90;;;;;;5069275;28;20028;-74
2021/11/02 15:15:19;;;;;;;2.75;0.52;;;15.20;99.90;;;;;;5090479;28;20017;-75
2021/11/02 15:17:52;;;;;;;2.30;0.43;;;15.10;99.90;;;;;;5092075;28;20058;-73
2021/11/02 15:20:23;;;;;;;3.20;0.68;;;15.00;99.90;;;;;;5087515;28;20155;-73
2021/11/02 15:22:51;;;;;;;4.38;1.33;;;15.00;99.90;;;;;;5081569;28;20483;-74
2021/11/02 15:25:18;;;;;;;3.38;0.60;;;15.00;99.90;;;;;;5092063;28;20040;-74
2021/11/02 15:27:46;;;;;;;4.82;0.60;;;14.90;99.90;;;;;;5076534;28;20020;-75
2021/11/02 15:30:16;;;;;;;3.83;0.50;;;14.90;99.90;;;;;;5077965;28;20028;-75
2021/11/02 15:32:48;;;;;;;3.30;1.13;;;14.80;99.90;;;;;;5077142;28;20049;-77
2021/11/02 15:35:19;;;;;;;5.40;1.00;;;14.80;99.90;;;;;;5075673;28;20021;-74
2021/11/02 15:38:00;;;;;;;1.92;0.50;;;14.80;99.90;;;;;;5060004;28;20107;-75
2021/11/02 15:40:37;;;;;;;6.88;0.70;;;14.70;99.90;;;;;;5064850;28;20498;-74
2021/11/02 15:43:07;;;;;;;2.63;0.60;;;14.70;99.90;;;;;;5087314;28;20047;-74
2021/11/02 15:45:38;;;;;;;3.65;0.57;;;14.70;99.90;;;;;;5090187;28;20031;-75
2021/11/02 15:48:11;;;;;;;4.35;0.60;;;14.70;99.90;;;;;;5094203;28;20024;-75
2021/11/02 15:50:43;;;;;;;1.80;0.65;;;14.70;99.90;;;;;;5079868;28;20564;-75
2021/11/02 15:53:11;;;;;;;4.57;0.80;;;14.70;99.90;;;;;;5096195;28;20039;-74
2021/11/02 15:55:39;;;;;;;4.65;0.63;;;14.70;99.90;;;;;;5091629;28;20025;-75
2021/11/02 15:58:09;;;;;;;1.30;0.85;;;14.70;99.90;;;;;;5075403;28;20032;-74
2021/11/02 16:00:39;;;;;;;3.17;0.77;;;14.70;99.90;;;;;;5075523;28;20074;-75
2021/11/02 16:03:07;;;;;;;3.95;0.95;;;14.60;99.90;;;;;;5075429;28;20020;-74
2021/11/02 16:05:36;;;;;;;6.18;1.48;;;14.60;99.90;;;;;;5080839;28;20108;-75
2021/11/02 16:08:21;;;;;;;6.32;0.68;;;14.60;99.90;;;;;;5066644;28;20378;-74
2021/11/02 16:11:03;;;;;;;4.10;0.60;;;14.60;99.90;;;;;;5086204;28;20027;-74
2021/11/02 16:13:31;;;;;;;1.52;0.73;;;14.70;99.90;;;;;;5094701;28;20062;-73
2021/11/02 16:16:04;;;;;;;6.70;1.02;;;14.70;99.90;;;;;;5093134;28;20093;-75
2021/11/02 16:18:34;;;;;;;2.60;0.52;;;14.70;99.90;;;;;;5095663;28;20344;-75
2021/11/02 16:21:05;;;;;;;2.65;0.50;;;14.70;99.90;;;;;;5090364;28;20020;-74
2021/11/02 16:23:44;;;;;;;3.17;0.70;;;14.70;99.90;;;;;;5094031;28;20044;-73
2021/11/02 16:26:26;;;;;;;1.92;0.80;;;14.70;99.90;;;;;;5085871;28;20483;-75
2021/11/02 16:28:58;;;;;;;4.93;0.55;;;14.60;99.90;;;;;;5075399;28;20025;-74
2021/11/02 16:31:29;;;;;;;1.13;0.50;;;14.60;99.90;;;;;;5081781;28;20058;-73
2021/11/02 16:33:58;;;;;;;9.88;0.95;;;14.50;99.90;;;;;;5088907;28;20034;-73
2021/11/02 16:36:37;;;;;;;2.15;1.00;;;14.50;99.90;;;;;;5084082;28;20050;-74
2021/11/02 16:39:25;;;;;;;2.45;0.80;;;14.40;99.90;;;;;;5083276;28;20030;-73
2021/11/02 16:41:58;;;;;;;3.28;0.63;;;14.40;99.90;;;;;;5087026;28;20048;-75
2021/11/02 16:44:30;;;;;;;2.42;0.88;;;14.40;99.90;;;;;;5093242;28;20040;-76
2021/11/02 16:47:13;;;;;;;7.68;1.48;;;14.30;99.90;;;;;;5088231;28;20051;-74
2021/11/02 16:49:42;;;;;;;2.30;0.73;;;14.30;99.90;;;;;;5084171;28;20479;-75
2021/11/02 16:52:27;;;;;;;2.85;0.77;;;14.20;99.90;;;;;;5079905;28;20047;-76
2021/11/02 16:55:12;;;;;;;2.90;0.70;;;14.20;99.90;;;;;;5079201;28;20023;-76
2021/11/02 16:57:39;;;;;;;3.20;0.80;;;14.20;99.90;;;;;;5076965;28;20078;-73
2021/11/02 17:00:15;;;;;;;2.90;0.77;;;14.20;99.90;;;;;;5080651;28;20038;-74
2021/11/02 17:02:44;;;;;;;4.15;0.80;;;14.10;99.90;;;;;;5082780;28;20175;-72
2021/11/02 17:05:18;;;;;;;3.08;0.47;;;14.10;99.90;;;;;;5074255;28;20487;-74
2021/11/02 17:08:06;;;;;;;2.05;0.43;;;14.10;99.90;;;;;;5074618;28;20016;-75
2021/11/02 17:10:40;;;;;;;2.55;1.40;;;14.00;99.90;;;;;;5073472;28;20082;-77
2021/11/02 17:13:16;;;;;;;2.00;0.68;;;14.00;99.90;;;;;;5086911;28;20062;-77
2021/11/02 17:15:53;;;;;;;1.77;0.55;;;13.90;99.90;;;;;;5076576;28;20046;-76
2021/11/02 17:18:27;;;;;;;1.65;0.40;;;13.90;99.90;;;;;;5075065;28;20483;-76
2021/11/02 17:21:07;;;;;;;1.77;0.50;;;13.90;99.90;;;;;;5079027;28;20016;-76
2021/11/02 17:23:35;;;;;;;3.42;0.63;;;13.80;99.90;;;;;;5055501;28;20446;-74
2021/11/02 17:26:05;;;;;;;4.88;0.63;;;13.80;99.90;;;;;;5080300;28;20094;-75
2021/11/02 17:28:34;;;;;;;9.25;1.02;;;13.80;99.90;;;;;;5087688;28;20114;-74
2021/11/02 17:31:05;;;;;;;4.10;1.33;;;13.80;99.90;;;;;;5091906;28;20032;-73
2021/11/02 17:33:34;;;;;;;4.63;1.23;;;13.70;99.90;;;;;;5073835;28;20530;-75
2021/11/02 17:36:07;;;;;;;6.85;0.77;;;13.70;99.90;;;;;;5080123;28;20051;-75
2021/11/02 17:38:40;;;;;;;3.30;0.98;;;13.80;99.90;;;;;;5089570;28;20028;-75
2021/11/02 17:41:08;;;;;;;1.63;0.63;;;13.80;99.90;;;;;;5085476;28;20401;-74
2021/11/02 17:43:38;;;;;;;5.13;0.88;;;13.80;99.90;;;;;;5085435;28;20029;-75
2021/11/02 17:46:06;;;;;;;5.07;0.80;;;13.80;99.90;;;;;;5079021;28;20023;-74
2021/11/02 17:48:34;;;;;;;3.13;0.80;;;13.80;99.90;;;;;;5057515;28;20365;-75
2021/11/02 17:51:02;;;;;;;3.25;1.10;;;13.90;99.90;;;;;;5081816;28;20054;-74
2021/11/02 17:53:31;;;;;;;1.33;0.98;;;13.90;99.90;;;;;;5091863;28;20028;-75
2021/11/02 17:55:58;;;;;;;5.10;1.92;;;13.80;99.90;;;;;;5091187;28;20020;-73
2021/11/02 17:58:27;;;;;;;1.55;0.80;;;13.90;99.90;;;;;;5077760;28;20055;-74
2021/11/02 18:00:56;;;;;;;1.83;0.80;;;13.80;99.90;;;;;;5077151;28;20032;-74
2021/11/02 18:03:28;;;;;;;2.95;1.02;;;13.80;99.90;;;;;;5085951;28;20020;-76
2021/11/02 18:06:01;;;;;;;1.40;0.93;;;13.70;99.90;;;;;;5060267;28;20024;-73
2021/11/02 18:08:31;;;;;;;3.85;0.60;;;13.70;99.90;;;;;;5079204;28;20420;-77
2021/11/02 18:11:00;;;;;;;3.70;0.70;;;13.70;99.90;;;;;;5085367;28;20028;-74
2021/11/02 18:13:29;;;;;;;6.15;0.80;;;13.70;99.90;;;;;;5077050;28;20036;-74
2021/11/02 18:15:59;;;;;;;1.55;0.60;;;13.60;99.90;;;;;;5079631;28;20020;-74
2021/11/02 18:18:29;;;;;;;1.67;0.88;;;13.60;99.90;;;;;;5093523;28;20024;-74
2021/11/02 18:20:58;;;;;;;2.03;0.63;;;13.60;99.90;;;;;;5090514;28;20028;-75
2021/11/02 18:23:26;;;;;;;1.88;0.88;;;13.50;99.90;;;;;;5077859;28;20135;-74
2021/11/02 18:25:53;;;;;;;1.88;0.70;;;13.50;99.90;;;;;;5080040;28;20024;-73